sensor_id;sensor_type;location;lat;lon;timestamp;P1;durP1;ratioP1;P2;durP2;ratioP2
59599;SDS011;61855;55.030;73.326;2022-08-19T00:01:39;5.35;;;2.00;;
59599;SDS011;61855;55.030;73.326;2022-08-19T00:04:12;4.20;;;1.80;;
59599;SDS011;61855;55.030;73.326;2022-08-19T00:06:41;6.38;;;1.52;;
59599;SDS011;61855;55.030;73.326;2022-08-19T00:09:09;3.47;;;0.95;;
59599;SDS011;61855;55.030;73.326;2022-08-19T00:11:36;2.75;;;1.08;;
59599;SDS011;61855;55.030;73.326;2022-08-19T00:14:13;3.90;;;1.00;;
59599;SDS011;61855;55.030;73.326;2022-08-19T00:16:43;2.22;;;1.13;;
59599;SDS011;61855;55.030;73.326;2022-08-19T00:19:10;2.67;;;0.90;;
59599;SDS011;61855;55.030;73.326;2022-08-19T00:21:37;2.17;;;1.08;;
59599;SDS011;61855;55.030;73.326;2022-08-19T00:24:05;1.48;;;0.98;;
59599;SDS011;61855;55.030;73.326;2022-08-19T00:26:33;2.63;;;1.20;;
59599;SDS011;61855;55.030;73.326;2022-08-19T00:28:59;1.42;;;1.20;;
59599;SDS011;61855;55.030;73.326;2022-08-19T00:31:31;1.83;;;1.10;;
59599;SDS011;61855;55.030;73.326;2022-08-19T00:33:57;1.70;;;1.02;;
59599;SDS011;61855;55.030;73.326;2022-08-19T00:36:24;1.40;;;0.90;;
59599;SDS011;61855;55.030;73.326;2022-08-19T00:38:50;1.42;;;1.05;;
59599;SDS011;61855;55.030;73.326;2022-08-19T00:41:19;1.27;;;0.93;;
59599;SDS011;61855;55.030;73.326;2022-08-19T00:46:29;2.15;;;1.15;;
59599;SDS011;61855;55.030;73.326;2022-08-19T00:48:56;0.80;;;0.80;;
59599;SDS011;61855;55.030;73.326;2022-08-19T00:51:24;3.13;;;1.40;;
59599;SDS011;61855;55.030;73.326;2022-08-19T00:53:58;3.20;;;1.50;;
59599;SDS011;61855;55.030;73.326;2022-08-19T00:56:27;1.05;;;0.90;;
59599;SDS011;61855;55.030;73.326;2022-08-19T00:58:55;4.10;;;1.30;;
59599;SDS011;61855;55.030;73.326;2022-08-19T01:01:23;3.42;;;1.33;;
59599;SDS011;61855;55.030;73.326;2022-08-19T01:03:49;1.67;;;1.08;;
59599;SDS011;61855;55.030;73.326;2022-08-19T01:06:26;7.00;;;1.70;;
59599;SDS011;61855;55.030;73.326;2022-08-19T01:08:53;5.45;;;1.23;;
59599;SDS011;61855;55.030;73.326;2022-08-19T01:11:31;3.47;;;1.10;;
59599;SDS011;61855;55.030;73.326;2022-08-19T01:14:05;6.68;;;2.08;;
59599;SDS011;61855;55.030;73.326;2022-08-19T01:16:42;7.60;;;2.90;;
59599;SDS011;61855;55.030;73.326;2022-08-19T01:19:12;14.95;;;3.08;;
59599;SDS011;61855;55.030;73.326;2022-08-19T01:21:52;13.10;;;3.60;;
59599;SDS011;61855;55.030;73.326;2022-08-19T01:24:27;15.15;;;4.45;;
59599;SDS011;61855;55.030;73.326;2022-08-19T01:26:56;14.80;;;4.47;;
59599;SDS011;61855;55.030;73.326;2022-08-19T01:29:23;13.93;;;3.53;;
59599;SDS011;61855;55.030;73.326;2022-08-19T01:31:49;8.70;;;3.13;;
59599;SDS011;61855;55.030;73.326;2022-08-19T01:34:27;11.75;;;3.67;;
59599;SDS011;61855;55.030;73.326;2022-08-19T01:36:53;11.48;;;3.92;;
59599;SDS011;61855;55.030;73.326;2022-08-19T01:39:20;12.23;;;3.83;;
59599;SDS011;61855;55.030;73.326;2022-08-19T01:41:48;12.38;;;3.17;;
59599;SDS011;61855;55.030;73.326;2022-08-19T01:44:16;10.10;;;2.90;;
59599;SDS011;61855;55.030;73.326;2022-08-19T01:46:47;12.52;;;3.40;;
59599;SDS011;61855;55.030;73.326;2022-08-19T01:49:13;17.25;;;3.92;;
59599;SDS011;61855;55.030;73.326;2022-08-19T01:51:40;9.73;;;2.53;;
59599;SDS011;61855;55.030;73.326;2022-08-19T01:54:10;11.25;;;3.30;;
59599;SDS011;61855;55.030;73.326;2022-08-19T01:56:38;9.40;;;2.65;;
59599;SDS011;61855;55.030;73.326;2022-08-19T01:59:05;15.45;;;4.03;;
59599;SDS011;61855;55.030;73.326;2022-08-19T02:01:41;15.38;;;3.78;;
59599;SDS011;61855;55.030;73.326;2022-08-19T02:04:13;13.38;;;3.17;;
59599;SDS011;61855;55.030;73.326;2022-08-19T02:06:40;11.02;;;3.88;;
59599;SDS011;61855;55.030;73.326;2022-08-19T02:09:07;16.20;;;3.65;;
59599;SDS011;61855;55.030;73.326;2022-08-19T02:11:34;9.18;;;3.70;;
59599;SDS011;61855;55.030;73.326;2022-08-19T02:14:07;9.45;;;3.13;;
59599;SDS011;61855;55.030;73.326;2022-08-19T02:16:38;14.15;;;3.03;;
59599;SDS011;61855;55.030;73.326;2022-08-19T02:19:05;7.60;;;2.90;;
59599;SDS011;61855;55.030;73.326;2022-08-19T02:21:32;6.57;;;2.10;;
59599;SDS011;61855;55.030;73.326;2022-08-19T02:23:58;7.95;;;1.80;;
59599;SDS011;61855;55.030;73.326;2022-08-19T02:26:25;6.15;;;1.70;;
59599;SDS011;61855;55.030;73.326;2022-08-19T02:28:54;8.40;;;2.22;;
59599;SDS011;61855;55.030;73.326;2022-08-19T02:31:23;12.95;;;3.60;;
59599;SDS011;61855;55.030;73.326;2022-08-19T02:33:50;9.38;;;3.10;;
59599;SDS011;61855;55.030;73.326;2022-08-19T02:36:17;9.65;;;2.58;;
59599;SDS011;61855;55.030;73.326;2022-08-19T02:38:44;16.52;;;3.75;;
59599;SDS011;61855;55.030;73.326;2022-08-19T02:41:18;14.10;;;4.22;;
59599;SDS011;61855;55.030;73.326;2022-08-19T02:43:46;12.95;;;4.05;;
59599;SDS011;61855;55.030;73.326;2022-08-19T02:46:23;12.10;;;3.90;;
59599;SDS011;61855;55.030;73.326;2022-08-19T02:48:53;11.63;;;3.80;;
59599;SDS011;61855;55.030;73.326;2022-08-19T02:51:23;16.67;;;3.58;;
59599;SDS011;61855;55.030;73.326;2022-08-19T02:54:00;9.82;;;3.45;;
59599;SDS011;61855;55.030;73.326;2022-08-19T02:56:38;18.33;;;4.65;;
59599;SDS011;61855;55.030;73.326;2022-08-19T02:59:05;18.80;;;4.15;;
59599;SDS011;61855;55.030;73.326;2022-08-19T03:01:37;12.48;;;3.55;;
59599;SDS011;61855;55.030;73.326;2022-08-19T03:04:12;9.77;;;3.10;;
59599;SDS011;61855;55.030;73.326;2022-08-19T03:06:40;9.32;;;3.40;;
59599;SDS011;61855;55.030;73.326;2022-08-19T03:09:13;10.77;;;3.50;;
59599;SDS011;61855;55.030;73.326;2022-08-19T03:11:39;11.35;;;3.85;;
59599;SDS011;61855;55.030;73.326;2022-08-19T03:14:06;8.18;;;2.90;;
59599;SDS011;61855;55.030;73.326;2022-08-19T03:16:43;7.78;;;3.10;;
59599;SDS011;61855;55.030;73.326;2022-08-19T03:19:13;10.50;;;2.90;;
59599;SDS011;61855;55.030;73.326;2022-08-19T03:21:39;13.73;;;2.85;;
59599;SDS011;61855;55.030;73.326;2022-08-19T03:24:06;8.77;;;2.78;;
59599;SDS011;61855;55.030;73.326;2022-08-19T03:26:34;12.15;;;3.88;;
59599;SDS011;61855;55.030;73.326;2022-08-19T03:29:10;6.50;;;2.63;;
59599;SDS011;61855;55.030;73.326;2022-08-19T03:31:37;9.60;;;3.42;;
59599;SDS011;61855;55.030;73.326;2022-08-19T03:34:04;14.23;;;3.58;;
59599;SDS011;61855;55.030;73.326;2022-08-19T03:36:31;19.02;;;3.17;;
59599;SDS011;61855;55.030;73.326;2022-08-19T03:38:58;5.20;;;1.88;;
59599;SDS011;61855;55.030;73.326;2022-08-19T03:41:27;6.30;;;2.33;;
59599;SDS011;61855;55.030;73.326;2022-08-19T03:43:56;6.50;;;1.90;;
59599;SDS011;61855;55.030;73.326;2022-08-19T03:46:27;4.93;;;2.10;;
59599;SDS011;61855;55.030;73.326;2022-08-19T03:48:56;8.35;;;2.40;;
59599;SDS011;61855;55.030;73.326;2022-08-19T03:51:30;7.43;;;2.35;;
59599;SDS011;61855;55.030;73.326;2022-08-19T03:53:59;5.60;;;2.20;;
59599;SDS011;61855;55.030;73.326;2022-08-19T03:56:27;11.80;;;3.20;;
59599;SDS011;61855;55.030;73.326;2022-08-19T03:58:57;9.82;;;2.60;;
59599;SDS011;61855;55.030;73.326;2022-08-19T04:01:25;10.00;;;2.53;;
59599;SDS011;61855;55.030;73.326;2022-08-19T04:03:55;4.95;;;1.80;;
59599;SDS011;61855;55.030;73.326;2022-08-19T04:06:23;4.47;;;1.80;;
59599;SDS011;61855;55.030;73.326;2022-08-19T04:08:52;4.63;;;1.80;;
59599;SDS011;61855;55.030;73.326;2022-08-19T04:11:26;3.97;;;1.70;;
59599;SDS011;61855;55.030;73.326;2022-08-19T04:13:55;5.28;;;1.92;;
59599;SDS011;61855;55.030;73.326;2022-08-19T04:16:26;9.52;;;2.22;;
59599;SDS011;61855;55.030;73.326;2022-08-19T04:18:55;3.35;;;1.77;;
59599;SDS011;61855;55.030;73.326;2022-08-19T04:21:32;9.80;;;2.47;;
59599;SDS011;61855;55.030;73.326;2022-08-19T04:23:59;6.72;;;2.50;;
59599;SDS011;61855;55.030;73.326;2022-08-19T04:26:29;9.68;;;2.85;;
59599;SDS011;61855;55.030;73.326;2022-08-19T04:28:58;3.40;;;1.50;;
59599;SDS011;61855;55.030;73.326;2022-08-19T04:31:26;3.10;;;1.50;;
59599;SDS011;61855;55.030;73.326;2022-08-19T04:34:08;4.20;;;1.73;;
59599;SDS011;61855;55.030;73.326;2022-08-19T04:36:37;5.20;;;3.05;;
59599;SDS011;61855;55.030;73.326;2022-08-19T04:39:15;6.05;;;1.80;;
59599;SDS011;61855;55.030;73.326;2022-08-19T04:41:44;3.42;;;1.48;;
59599;SDS011;61855;55.030;73.326;2022-08-19T04:44:29;4.53;;;1.20;;
59599;SDS011;61855;55.030;73.326;2022-08-19T04:47:01;3.08;;;1.35;;
59599;SDS011;61855;55.030;73.326;2022-08-19T04:49:33;2.38;;;1.10;;
59599;SDS011;61855;55.030;73.326;2022-08-19T04:51:59;2.35;;;1.40;;
59599;SDS011;61855;55.030;73.326;2022-08-19T04:54:25;2.17;;;1.50;;
59599;SDS011;61855;55.030;73.326;2022-08-19T04:57:02;2.35;;;1.60;;
59599;SDS011;61855;55.030;73.326;2022-08-19T04:59:31;2.10;;;1.35;;
59599;SDS011;61855;55.030;73.326;2022-08-19T05:01:58;4.88;;;1.30;;
59599;SDS011;61855;55.030;73.326;2022-08-19T05:04:25;12.02;;;1.80;;
59599;SDS011;61855;55.030;73.326;2022-08-19T05:06:51;4.68;;;1.70;;
59599;SDS011;61855;55.030;73.326;2022-08-19T05:09:18;6.85;;;1.85;;
59599;SDS011;61855;55.030;73.326;2022-08-19T05:11:52;6.75;;;1.95;;
59599;SDS011;61855;55.030;73.326;2022-08-19T05:14:18;4.82;;;1.90;;
59599;SDS011;61855;55.030;73.326;2022-08-19T05:16:46;8.18;;;3.40;;
59599;SDS011;61855;55.030;73.326;2022-08-19T05:19:12;18.83;;;4.35;;
59599;SDS011;61855;55.030;73.326;2022-08-19T05:21:57;3.28;;;1.23;;
59599;SDS011;61855;55.030;73.326;2022-08-19T05:24:41;2.03;;;1.23;;
59599;SDS011;61855;55.030;73.326;2022-08-19T05:27:09;0.98;;;0.82;;
59599;SDS011;61855;55.030;73.326;2022-08-19T05:29:35;2.13;;;1.00;;
59599;SDS011;61855;55.030;73.326;2022-08-19T05:32:03;1.70;;;0.98;;
59599;SDS011;61855;55.030;73.326;2022-08-19T05:34:31;2.50;;;0.93;;
59599;SDS011;61855;55.030;73.326;2022-08-19T05:36:58;5.25;;;1.55;;
59599;SDS011;61855;55.030;73.326;2022-08-19T05:39:26;1.90;;;1.00;;
59599;SDS011;61855;55.030;73.326;2022-08-19T05:41:55;2.95;;;0.93;;
59599;SDS011;61855;55.030;73.326;2022-08-19T05:44:24;1.67;;;1.27;;
59599;SDS011;61855;55.030;73.326;2022-08-19T05:47:06;7.28;;;1.88;;
59599;SDS011;61855;55.030;73.326;2022-08-19T05:49:36;1.88;;;1.08;;
59599;SDS011;61855;55.030;73.326;2022-08-19T05:52:03;11.60;;;2.70;;
59599;SDS011;61855;55.030;73.326;2022-08-19T05:54:31;2.03;;;0.82;;
59599;SDS011;61855;55.030;73.326;2022-08-19T05:56:59;1.10;;;0.90;;
59599;SDS011;61855;55.030;73.326;2022-08-19T05:59:39;1.95;;;0.90;;
59599;SDS011;61855;55.030;73.326;2022-08-19T06:02:05;0.70;;;0.70;;
59599;SDS011;61855;55.030;73.326;2022-08-19T06:04:32;0.98;;;0.88;;
59599;SDS011;61855;55.030;73.326;2022-08-19T06:06:58;5.47;;;1.08;;
59599;SDS011;61855;55.030;73.326;2022-08-19T06:09:24;1.58;;;1.08;;
59599;SDS011;61855;55.030;73.326;2022-08-19T06:11:52;2.92;;;1.20;;
59599;SDS011;61855;55.030;73.326;2022-08-19T06:14:24;2.60;;;1.42;;
59599;SDS011;61855;55.030;73.326;2022-08-19T06:16:52;1.38;;;1.25;;
59599;SDS011;61855;55.030;73.326;2022-08-19T06:19:23;2.03;;;1.30;;
59599;SDS011;61855;55.030;73.326;2022-08-19T06:21:54;1.27;;;1.10;;
59599;SDS011;61855;55.030;73.326;2022-08-19T06:24:21;2.25;;;1.15;;
59599;SDS011;61855;55.030;73.326;2022-08-19T06:26:50;4.32;;;1.48;;
59599;SDS011;61855;55.030;73.326;2022-08-19T06:29:19;5.03;;;1.75;;
59599;SDS011;61855;55.030;73.326;2022-08-19T06:31:48;3.53;;;1.08;;
59599;SDS011;61855;55.030;73.326;2022-08-19T06:34:16;1.85;;;1.15;;
59599;SDS011;61855;55.030;73.326;2022-08-19T06:36:44;1.40;;;1.17;;
59599;SDS011;61855;55.030;73.326;2022-08-19T06:39:31;1.88;;;1.23;;
59599;SDS011;61855;55.030;73.326;2022-08-19T06:42:00;1.98;;;1.13;;
59599;SDS011;61855;55.030;73.326;2022-08-19T06:44:32;2.90;;;1.20;;
59599;SDS011;61855;55.030;73.326;2022-08-19T06:47:06;6.03;;;1.50;;
59599;SDS011;61855;55.030;73.326;2022-08-19T06:49:34;2.78;;;1.45;;
59599;SDS011;61855;55.030;73.326;2022-08-19T06:52:00;7.13;;;1.33;;
59599;SDS011;61855;55.030;73.326;2022-08-19T06:54:27;5.75;;;2.00;;
59599;SDS011;61855;55.030;73.326;2022-08-19T06:56:55;15.95;;;4.20;;
59599;SDS011;61855;55.030;73.326;2022-08-19T06:59:27;2.95;;;1.42;;
59599;SDS011;61855;55.030;73.326;2022-08-19T07:01:58;10.75;;;1.83;;
59599;SDS011;61855;55.030;73.326;2022-08-19T07:04:27;6.50;;;1.80;;
59599;SDS011;61855;55.030;73.326;2022-08-19T07:07:03;0.90;;;0.70;;
59599;SDS011;61855;55.030;73.326;2022-08-19T07:09:35;2.25;;;1.48;;
59599;SDS011;61855;55.030;73.326;2022-08-19T07:12:04;1.00;;;0.75;;
59599;SDS011;61855;55.030;73.326;2022-08-19T07:14:33;1.98;;;1.40;;
59599;SDS011;61855;55.030;73.326;2022-08-19T07:17:03;0.95;;;0.85;;
59599;SDS011;61855;55.030;73.326;2022-08-19T07:19:34;3.38;;;1.50;;
59599;SDS011;61855;55.030;73.326;2022-08-19T07:22:02;5.32;;;1.60;;
59599;SDS011;61855;55.030;73.326;2022-08-19T07:24:30;3.70;;;1.20;;
59599;SDS011;61855;55.030;73.326;2022-08-19T07:26:57;3.65;;;1.30;;
59599;SDS011;61855;55.030;73.326;2022-08-19T07:29:31;3.42;;;1.58;;
59599;SDS011;61855;55.030;73.326;2022-08-19T07:32:00;4.22;;;1.83;;
59599;SDS011;61855;55.030;73.326;2022-08-19T07:34:28;6.28;;;1.50;;
59599;SDS011;61855;55.030;73.326;2022-08-19T07:36:55;3.42;;;1.63;;
59599;SDS011;61855;55.030;73.326;2022-08-19T07:39:24;1.98;;;1.35;;
59599;SDS011;61855;55.030;73.326;2022-08-19T07:41:52;2.63;;;1.50;;
59599;SDS011;61855;55.030;73.326;2022-08-19T07:44:20;5.65;;;2.13;;
59599;SDS011;61855;55.030;73.326;2022-08-19T07:46:49;3.22;;;1.50;;
59599;SDS011;61855;55.030;73.326;2022-08-19T07:49:18;2.40;;;1.67;;
59599;SDS011;61855;55.030;73.326;2022-08-19T07:51:47;5.05;;;1.90;;
59599;SDS011;61855;55.030;73.326;2022-08-19T07:54:16;4.97;;;2.10;;
59599;SDS011;61855;55.030;73.326;2022-08-19T07:56:42;3.40;;;1.95;;
59599;SDS011;61855;55.030;73.326;2022-08-19T07:59:09;4.32;;;2.20;;
59599;SDS011;61855;55.030;73.326;2022-08-19T08:01:36;7.25;;;2.10;;
59599;SDS011;61855;55.030;73.326;2022-08-19T08:04:02;6.07;;;2.10;;
59599;SDS011;61855;55.030;73.326;2022-08-19T08:06:47;6.40;;;1.92;;
59599;SDS011;61855;55.030;73.326;2022-08-19T08:09:35;2.22;;;1.67;;
59599;SDS011;61855;55.030;73.326;2022-08-19T08:12:05;5.75;;;1.67;;
59599;SDS011;61855;55.030;73.326;2022-08-19T08:14:39;6.28;;;2.38;;
59599;SDS011;61855;55.030;73.326;2022-08-19T08:17:14;5.35;;;3.13;;
59599;SDS011;61855;55.030;73.326;2022-08-19T08:19:41;4.47;;;2.40;;
59599;SDS011;61855;55.030;73.326;2022-08-19T08:22:09;2.95;;;1.90;;
59599;SDS011;61855;55.030;73.326;2022-08-19T08:25:00;17.02;;;4.53;;
59599;SDS011;61855;55.030;73.326;2022-08-19T08:27:40;25.20;;;6.43;;
59599;SDS011;61855;55.030;73.326;2022-08-19T08:30:08;33.17;;;6.00;;
59599;SDS011;61855;55.030;73.326;2022-08-19T08:32:37;13.43;;;4.05;;
59599;SDS011;61855;55.030;73.326;2022-08-19T08:35:05;19.25;;;4.47;;
59599;SDS011;61855;55.030;73.326;2022-08-19T08:37:34;20.67;;;5.55;;
59599;SDS011;61855;55.030;73.326;2022-08-19T08:40:04;22.63;;;4.75;;
59599;SDS011;61855;55.030;73.326;2022-08-19T08:42:36;9.48;;;3.28;;
59599;SDS011;61855;55.030;73.326;2022-08-19T08:45:11;10.63;;;4.35;;
59599;SDS011;61855;55.030;73.326;2022-08-19T08:47:44;21.50;;;6.10;;
59599;SDS011;61855;55.030;73.326;2022-08-19T08:50:18;19.70;;;5.03;;
59599;SDS011;61855;55.030;73.326;2022-08-19T08:52:53;11.98;;;3.95;;
59599;SDS011;61855;55.030;73.326;2022-08-19T08:55:24;49.78;;;7.10;;
59599;SDS011;61855;55.030;73.326;2022-08-19T08:58:03;7.82;;;2.97;;
59599;SDS011;61855;55.030;73.326;2022-08-19T09:00:32;15.00;;;4.10;;
59599;SDS011;61855;55.030;73.326;2022-08-19T09:03:21;19.80;;;5.28;;
59599;SDS011;61855;55.030;73.326;2022-08-19T09:08:39;12.90;;;3.65;;
59599;SDS011;61855;55.030;73.326;2022-08-19T09:11:25;4.25;;;2.38;;
59599;SDS011;61855;55.030;73.326;2022-08-19T09:17:11;4.68;;;2.10;;
59599;SDS011;61855;55.030;73.326;2022-08-19T09:19:51;17.75;;;4.80;;
59599;SDS011;61855;55.030;73.326;2022-08-19T09:22:21;21.30;;;4.82;;
59599;SDS011;61855;55.030;73.326;2022-08-19T09:24:49;22.40;;;5.72;;
59599;SDS011;61855;55.030;73.326;2022-08-19T09:27:22;12.48;;;4.00;;
59599;SDS011;61855;55.030;73.326;2022-08-19T09:29:55;8.73;;;3.75;;
59599;SDS011;61855;55.030;73.326;2022-08-19T09:32:22;5.97;;;3.17;;
59599;SDS011;61855;55.030;73.326;2022-08-19T09:34:59;10.02;;;3.75;;
59599;SDS011;61855;55.030;73.326;2022-08-19T09:37:27;9.13;;;4.20;;
59599;SDS011;61855;55.030;73.326;2022-08-19T09:39:53;7.75;;;4.63;;
59599;SDS011;61855;55.030;73.326;2022-08-19T09:42:19;9.77;;;5.05;;
59599;SDS011;61855;55.030;73.326;2022-08-19T09:44:46;15.98;;;5.80;;
59599;SDS011;61855;55.030;73.326;2022-08-19T09:47:19;8.95;;;4.63;;
59599;SDS011;61855;55.030;73.326;2022-08-19T09:49:48;10.13;;;5.47;;
59599;SDS011;61855;55.030;73.326;2022-08-19T09:52:16;10.82;;;4.20;;
59599;SDS011;61855;55.030;73.326;2022-08-19T09:54:43;5.50;;;3.60;;
59599;SDS011;61855;55.030;73.326;2022-08-19T09:57:16;6.13;;;4.22;;
59599;SDS011;61855;55.030;73.326;2022-08-19T09:59:42;8.00;;;4.72;;
59599;SDS011;61855;55.030;73.326;2022-08-19T10:02:09;7.80;;;3.90;;
59599;SDS011;61855;55.030;73.326;2022-08-19T10:04:36;10.75;;;5.30;;
59599;SDS011;61855;55.030;73.326;2022-08-19T10:07:21;8.52;;;4.95;;
59599;SDS011;61855;55.030;73.326;2022-08-19T10:09:47;9.20;;;5.35;;
59599;SDS011;61855;55.030;73.326;2022-08-19T10:12:26;11.07;;;5.10;;
59599;SDS011;61855;55.030;73.326;2022-08-19T10:14:57;13.23;;;6.50;;
59599;SDS011;61855;55.030;73.326;2022-08-19T10:17:24;9.68;;;5.95;;
59599;SDS011;61855;55.030;73.326;2022-08-19T10:20:01;8.30;;;5.93;;
59599;SDS011;61855;55.030;73.326;2022-08-19T10:22:29;9.90;;;5.65;;
59599;SDS011;61855;55.030;73.326;2022-08-19T10:24:56;14.88;;;7.13;;
59599;SDS011;61855;55.030;73.326;2022-08-19T10:27:29;9.55;;;4.82;;
59599;SDS011;61855;55.030;73.326;2022-08-19T10:29:56;5.65;;;4.18;;
59599;SDS011;61855;55.030;73.326;2022-08-19T10:32:27;8.30;;;4.72;;
59599;SDS011;61855;55.030;73.326;2022-08-19T10:34:54;10.65;;;4.40;;
59599;SDS011;61855;55.030;73.326;2022-08-19T10:37:21;7.20;;;4.70;;
59599;SDS011;61855;55.030;73.326;2022-08-19T10:39:47;8.35;;;4.43;;
59599;SDS011;61855;55.030;73.326;2022-08-19T10:42:13;6.68;;;4.07;;
59599;SDS011;61855;55.030;73.326;2022-08-19T10:44:41;5.95;;;3.90;;
59599;SDS011;61855;55.030;73.326;2022-08-19T10:47:08;6.93;;;4.20;;
59599;SDS011;61855;55.030;73.326;2022-08-19T10:49:35;7.28;;;4.32;;
59599;SDS011;61855;55.030;73.326;2022-08-19T10:52:26;5.88;;;4.05;;
59599;SDS011;61855;55.030;73.326;2022-08-19T10:55:05;6.32;;;3.70;;
59599;SDS011;61855;55.030;73.326;2022-08-19T10:57:53;6.32;;;3.90;;
59599;SDS011;61855;55.030;73.326;2022-08-19T11:00:20;7.40;;;4.18;;
59599;SDS011;61855;55.030;73.326;2022-08-19T11:02:46;3.30;;;2.40;;
59599;SDS011;61855;55.030;73.326;2022-08-19T11:05:12;3.55;;;2.92;;
59599;SDS011;61855;55.030;73.326;2022-08-19T11:07:40;3.78;;;2.53;;
59599;SDS011;61855;55.030;73.326;2022-08-19T11:10:07;5.65;;;2.50;;
59599;SDS011;61855;55.030;73.326;2022-08-19T11:12:38;6.75;;;2.95;;
59599;SDS011;61855;55.030;73.326;2022-08-19T11:15:10;4.03;;;2.33;;
59599;SDS011;61855;55.030;73.326;2022-08-19T11:17:39;5.18;;;3.60;;
59599;SDS011;61855;55.030;73.326;2022-08-19T11:20:09;6.97;;;4.60;;
59599;SDS011;61855;55.030;73.326;2022-08-19T11:22:41;11.95;;;7.53;;
59599;SDS011;61855;55.030;73.326;2022-08-19T11:25:09;5.43;;;3.50;;
59599;SDS011;61855;55.030;73.326;2022-08-19T11:27:39;9.73;;;4.22;;
59599;SDS011;61855;55.030;73.326;2022-08-19T11:30:10;7.47;;;2.80;;
59599;SDS011;61855;55.030;73.326;2022-08-19T11:32:37;6.70;;;3.85;;
59599;SDS011;61855;55.030;73.326;2022-08-19T11:35:03;6.32;;;3.65;;
59599;SDS011;61855;55.030;73.326;2022-08-19T11:37:30;5.85;;;3.05;;
59599;SDS011;61855;55.030;73.326;2022-08-19T11:39:56;4.82;;;3.00;;
59599;SDS011;61855;55.030;73.326;2022-08-19T11:42:22;6.05;;;2.70;;
59599;SDS011;61855;55.030;73.326;2022-08-19T11:45:07;3.55;;;2.50;;
59599;SDS011;61855;55.030;73.326;2022-08-19T11:47:35;6.47;;;3.05;;
59599;SDS011;61855;55.030;73.326;2022-08-19T11:50:02;7.03;;;2.83;;
59599;SDS011;61855;55.030;73.326;2022-08-19T11:52:28;4.18;;;2.60;;
59599;SDS011;61855;55.030;73.326;2022-08-19T11:54:55;6.20;;;3.00;;
59599;SDS011;61855;55.030;73.326;2022-08-19T11:57:20;3.92;;;3.10;;
59599;SDS011;61855;55.030;73.326;2022-08-19T11:59:48;14.40;;;6.57;;
59599;SDS011;61855;55.030;73.326;2022-08-19T12:02:16;5.38;;;3.95;;
59599;SDS011;61855;55.030;73.326;2022-08-19T12:04:42;6.82;;;4.70;;
59599;SDS011;61855;55.030;73.326;2022-08-19T12:07:08;6.63;;;3.38;;
59599;SDS011;61855;55.030;73.326;2022-08-19T12:09:34;3.97;;;2.22;;
59599;SDS011;61855;55.030;73.326;2022-08-19T12:12:00;4.72;;;2.40;;
59599;SDS011;61855;55.030;73.326;2022-08-19T12:14:28;4.25;;;2.90;;
59599;SDS011;61855;55.030;73.326;2022-08-19T12:16:56;6.18;;;3.45;;
59599;SDS011;61855;55.030;73.326;2022-08-19T12:19:22;8.95;;;4.68;;
59599;SDS011;61855;55.030;73.326;2022-08-19T12:21:50;7.40;;;3.90;;
59599;SDS011;61855;55.030;73.326;2022-08-19T12:24:16;11.13;;;4.85;;
59599;SDS011;61855;55.030;73.326;2022-08-19T12:26:48;15.30;;;7.70;;
59599;SDS011;61855;55.030;73.326;2022-08-19T12:29:16;11.27;;;6.50;;
59599;SDS011;61855;55.030;73.326;2022-08-19T12:31:43;12.38;;;5.93;;
59599;SDS011;61855;55.030;73.326;2022-08-19T12:34:09;10.05;;;5.45;;
59599;SDS011;61855;55.030;73.326;2022-08-19T12:36:35;8.35;;;4.72;;
59599;SDS011;61855;55.030;73.326;2022-08-19T12:39:01;5.68;;;4.20;;
59599;SDS011;61855;55.030;73.326;2022-08-19T12:41:30;4.65;;;3.05;;
59599;SDS011;61855;55.030;73.326;2022-08-19T12:43:56;5.13;;;3.28;;
59599;SDS011;61855;55.030;73.326;2022-08-19T12:46:23;6.60;;;3.58;;
59599;SDS011;61855;55.030;73.326;2022-08-19T12:48:51;7.03;;;3.90;;
59599;SDS011;61855;55.030;73.326;2022-08-19T12:51:17;6.70;;;4.80;;
59599;SDS011;61855;55.030;73.326;2022-08-19T12:53:47;13.50;;;4.82;;
59599;SDS011;61855;55.030;73.326;2022-08-19T12:56:15;9.68;;;5.70;;
59599;SDS011;61855;55.030;73.326;2022-08-19T12:58:42;8.98;;;5.25;;
59599;SDS011;61855;55.030;73.326;2022-08-19T13:01:20;13.50;;;7.93;;
59599;SDS011;61855;55.030;73.326;2022-08-19T13:03:46;13.25;;;6.03;;
59599;SDS011;61855;55.030;73.326;2022-08-19T13:06:12;50.58;;;24.45;;
59599;SDS011;61855;55.030;73.326;2022-08-19T13:08:39;31.63;;;12.65;;
59599;SDS011;61855;55.030;73.326;2022-08-19T13:11:12;72.45;;;11.73;;
59599;SDS011;61855;55.030;73.326;2022-08-19T13:13:43;18.45;;;4.68;;
59599;SDS011;61855;55.030;73.326;2022-08-19T13:16:15;37.45;;;4.68;;
59599;SDS011;61855;55.030;73.326;2022-08-19T13:18:44;17.48;;;4.47;;
59599;SDS011;61855;55.030;73.326;2022-08-19T13:21:17;12.80;;;5.40;;
59599;SDS011;61855;55.030;73.326;2022-08-19T13:23:57;14.38;;;7.60;;
59599;SDS011;61855;55.030;73.326;2022-08-19T13:26:24;16.83;;;7.47;;
59599;SDS011;61855;55.030;73.326;2022-08-19T13:28:54;14.05;;;4.75;;
59599;SDS011;61855;55.030;73.326;2022-08-19T13:32:06;9.75;;;4.45;;
59599;SDS011;61855;55.030;73.326;2022-08-19T13:34:50;11.25;;;5.72;;
59599;SDS011;61855;55.030;73.326;2022-08-19T13:37:16;16.15;;;7.55;;
59599;SDS011;61855;55.030;73.326;2022-08-19T13:40:02;19.10;;;8.80;;
59599;SDS011;61855;55.030;73.326;2022-08-19T13:42:29;23.73;;;11.05;;
59599;SDS011;61855;55.030;73.326;2022-08-19T13:44:56;20.45;;;8.82;;
59599;SDS011;61855;55.030;73.326;2022-08-19T13:47:23;20.00;;;9.68;;
59599;SDS011;61855;55.030;73.326;2022-08-19T13:49:49;19.83;;;9.20;;
59599;SDS011;61855;55.030;73.326;2022-08-19T13:52:15;16.95;;;8.40;;
59599;SDS011;61855;55.030;73.326;2022-08-19T13:54:41;19.73;;;9.13;;
59599;SDS011;61855;55.030;73.326;2022-08-19T13:57:09;15.32;;;7.90;;
59599;SDS011;61855;55.030;73.326;2022-08-19T13:59:35;12.10;;;6.47;;
59599;SDS011;61855;55.030;73.326;2022-08-19T14:02:01;14.70;;;6.70;;
59599;SDS011;61855;55.030;73.326;2022-08-19T14:04:27;25.80;;;14.43;;
59599;SDS011;61855;55.030;73.326;2022-08-19T14:06:53;13.75;;;7.03;;
59599;SDS011;61855;55.030;73.326;2022-08-19T14:09:22;10.55;;;5.72;;
59599;SDS011;61855;55.030;73.326;2022-08-19T14:11:48;12.30;;;5.25;;
59599;SDS011;61855;55.030;73.326;2022-08-19T14:14:16;16.08;;;7.38;;
59599;SDS011;61855;55.030;73.326;2022-08-19T14:16:43;10.65;;;4.85;;
59599;SDS011;61855;55.030;73.326;2022-08-19T14:19:18;17.48;;;7.40;;
59599;SDS011;61855;55.030;73.326;2022-08-19T14:21:45;16.35;;;6.95;;
59599;SDS011;61855;55.030;73.326;2022-08-19T14:24:11;18.13;;;6.47;;
59599;SDS011;61855;55.030;73.326;2022-08-19T14:26:37;15.20;;;7.63;;
59599;SDS011;61855;55.030;73.326;2022-08-19T14:29:04;18.17;;;6.53;;
59599;SDS011;61855;55.030;73.326;2022-08-19T14:31:30;17.92;;;8.57;;
59599;SDS011;61855;55.030;73.326;2022-08-19T14:33:56;14.70;;;5.75;;
59599;SDS011;61855;55.030;73.326;2022-08-19T14:36:21;17.65;;;7.38;;
59599;SDS011;61855;55.030;73.326;2022-08-19T14:38:47;14.63;;;8.32;;
59599;SDS011;61855;55.030;73.326;2022-08-19T14:41:16;15.88;;;5.35;;
59599;SDS011;61855;55.030;73.326;2022-08-19T14:43:45;10.20;;;5.88;;
59599;SDS011;61855;55.030;73.326;2022-08-19T14:46:17;14.60;;;6.93;;
59599;SDS011;61855;55.030;73.326;2022-08-19T14:48:52;7.05;;;4.05;;
59599;SDS011;61855;55.030;73.326;2022-08-19T14:51:18;7.97;;;3.95;;
59599;SDS011;61855;55.030;73.326;2022-08-19T14:53:46;8.73;;;5.43;;
59599;SDS011;61855;55.030;73.326;2022-08-19T14:56:15;7.45;;;4.80;;